sensor_id;sensor_type;location;lat;lon;timestamp;P1;durP1;ratioP1;P2;durP2;ratioP2
9761;SDS011;4920;49.594;11.022;2023-11-19T00:00:31;7.17;;;6.13;;
9761;SDS011;4920;49.594;11.022;2023-11-19T00:03:00;9.13;;;6.50;;
9761;SDS011;4920;49.594;11.022;2023-11-19T00:05:29;9.63;;;6.37;;
9761;SDS011;4920;49.594;11.022;2023-11-19T00:07:58;8.53;;;6.30;;
9761;SDS011;4920;49.594;11.022;2023-11-19T00:10:30;7.67;;;6.07;;
9761;SDS011;4920;49.594;11.022;2023-11-19T00:12:59;7.33;;;6.20;;
9761;SDS011;4920;49.594;11.022;2023-11-19T00:15:29;6.53;;;5.87;;
9761;SDS011;4920;49.594;11.022;2023-11-19T00:17:58;7.27;;;5.97;;
9761;SDS011;4920;49.594;11.022;2023-11-19T00:20:29;7.70;;;6.30;;
9761;SDS011;4920;49.594;11.022;2023-11-19T00:22:59;9.30;;;6.13;;
9761;SDS011;4920;49.594;11.022;2023-11-19T00:25:30;7.37;;;6.10;;
9761;SDS011;4920;49.594;11.022;2023-11-19T00:27:59;8.27;;;6.97;;
9761;SDS011;4920;49.594;11.022;2023-11-19T00:30:28;11.87;;;7.10;;
9761;SDS011;4920;49.594;11.022;2023-11-19T00:32:58;11.33;;;7.17;;
9761;SDS011;4920;49.594;11.022;2023-11-19T00:35:27;8.53;;;6.20;;
9761;SDS011;4920;49.594;11.022;2023-11-19T00:37:58;8.20;;;6.63;;
9761;SDS011;4920;49.594;11.022;2023-11-19T00:40:27;11.47;;;7.27;;
9761;SDS011;4920;49.594;11.022;2023-11-19T00:42:58;9.70;;;7.23;;
9761;SDS011;4920;49.594;11.022;2023-11-19T00:45:27;9.77;;;7.17;;
9761;SDS011;4920;49.594;11.022;2023-11-19T00:47:56;7.80;;;6.70;;
9761;SDS011;4920;49.594;11.022;2023-11-19T00:50:26;9.47;;;6.90;;
9761;SDS011;4920;49.594;11.022;2023-11-19T00:52:56;10.37;;;7.23;;
9761;SDS011;4920;49.594;11.022;2023-11-19T00:55:25;9.50;;;7.33;;
9761;SDS011;4920;49.594;11.022;2023-11-19T00:57:54;8.03;;;6.87;;
9761;SDS011;4920;49.594;11.022;2023-11-19T01:00:25;9.47;;;7.40;;
9761;SDS011;4920;49.594;11.022;2023-11-19T01:02:54;10.27;;;7.23;;
9761;SDS011;4920;49.594;11.022;2023-11-19T01:05:23;9.13;;;7.37;;
9761;SDS011;4920;49.594;11.022;2023-11-19T01:07:52;9.23;;;7.40;;
9761;SDS011;4920;49.594;11.022;2023-11-19T01:10:22;9.53;;;7.27;;
9761;SDS011;4920;49.594;11.022;2023-11-19T01:12:52;8.57;;;7.23;;
9761;SDS011;4920;49.594;11.022;2023-11-19T01:15:21;8.57;;;6.70;;
9761;SDS011;4920;49.594;11.022;2023-11-19T01:17:52;10.30;;;7.50;;
9761;SDS011;4920;49.594;11.022;2023-11-19T01:20:21;8.20;;;7.30;;
9761;SDS011;4920;49.594;11.022;2023-11-19T01:22:50;8.40;;;7.00;;
9761;SDS011;4920;49.594;11.022;2023-11-19T01:25:19;8.83;;;6.77;;
9761;SDS011;4920;49.594;11.022;2023-11-19T01:27:48;8.77;;;7.10;;
9761;SDS011;4920;49.594;11.022;2023-11-19T01:30:17;11.67;;;7.63;;
9761;SDS011;4920;49.594;11.022;2023-11-19T01:32:48;9.67;;;7.53;;
9761;SDS011;4920;49.594;11.022;2023-11-19T01:35:19;9.17;;;7.23;;
9761;SDS011;4920;49.594;11.022;2023-11-19T01:37:53;8.80;;;7.37;;
9761;SDS011;4920;49.594;11.022;2023-11-19T01:40:21;9.13;;;7.33;;
9761;SDS011;4920;49.594;11.022;2023-11-19T01:42:50;9.60;;;7.50;;
9761;SDS011;4920;49.594;11.022;2023-11-19T01:45:26;10.37;;;7.67;;
9761;SDS011;4920;49.594;11.022;2023-11-19T01:47:58;10.23;;;7.57;;
9761;SDS011;4920;49.594;11.022;2023-11-19T01:50:31;13.63;;;8.77;;
9761;SDS011;4920;49.594;11.022;2023-11-19T01:53:02;10.87;;;8.03;;
9761;SDS011;4920;49.594;11.022;2023-11-19T01:55:31;10.57;;;8.00;;
9761;SDS011;4920;49.594;11.022;2023-11-19T01:58:01;9.10;;;7.40;;
9761;SDS011;4920;49.594;11.022;2023-11-19T02:00:30;9.37;;;7.53;;
9761;SDS011;4920;49.594;11.022;2023-11-19T02:03:01;10.90;;;7.90;;
9761;SDS011;4920;49.594;11.022;2023-11-19T02:05:33;8.77;;;7.20;;
9761;SDS011;4920;49.594;11.022;2023-11-19T02:08:03;10.00;;;7.37;;
9761;SDS011;4920;49.594;11.022;2023-11-19T02:10:32;11.73;;;8.13;;
9761;SDS011;4920;49.594;11.022;2023-11-19T02:13:01;10.97;;;7.80;;
9761;SDS011;4920;49.594;11.022;2023-11-19T02:15:33;12.13;;;8.53;;
9761;SDS011;4920;49.594;11.022;2023-11-19T02:18:18;14.73;;;8.70;;
9761;SDS011;4920;49.594;11.022;2023-11-19T02:20:50;9.43;;;7.30;;
9761;SDS011;4920;49.594;11.022;2023-11-19T02:23:20;10.93;;;7.93;;
9761;SDS011;4920;49.594;11.022;2023-11-19T02:25:53;12.77;;;8.23;;
9761;SDS011;4920;49.594;11.022;2023-11-19T02:28:31;10.13;;;7.60;;
9761;SDS011;4920;49.594;11.022;2023-11-19T02:31:01;11.27;;;7.47;;
9761;SDS011;4920;49.594;11.022;2023-11-19T02:33:31;11.00;;;7.90;;
9761;SDS011;4920;49.594;11.022;2023-11-19T02:36:00;11.80;;;7.93;;
9761;SDS011;4920;49.594;11.022;2023-11-19T02:38:30;10.30;;;7.93;;
9761;SDS011;4920;49.594;11.022;2023-11-19T02:40:59;10.77;;;7.83;;
9761;SDS011;4920;49.594;11.022;2023-11-19T02:43:31;12.67;;;7.80;;
9761;SDS011;4920;49.594;11.022;2023-11-19T02:46:01;9.07;;;7.57;;
9761;SDS011;4920;49.594;11.022;2023-11-19T02:48:41;12.30;;;7.40;;
9761;SDS011;4920;49.594;11.022;2023-11-19T02:51:11;9.43;;;7.10;;
9761;SDS011;4920;49.594;11.022;2023-11-19T02:53:40;10.10;;;7.40;;
9761;SDS011;4920;49.594;11.022;2023-11-19T02:56:11;7.63;;;6.30;;
9761;SDS011;4920;49.594;11.022;2023-11-19T02:58:48;9.83;;;7.03;;
9761;SDS011;4920;49.594;11.022;2023-11-19T03:01:21;12.13;;;8.03;;
9761;SDS011;4920;49.594;11.022;2023-11-19T03:03:58;11.40;;;8.13;;
9761;SDS011;4920;49.594;11.022;2023-11-19T03:06:30;13.23;;;8.03;;
9761;SDS011;4920;49.594;11.022;2023-11-19T03:08:59;10.23;;;7.13;;
9761;SDS011;4920;49.594;11.022;2023-11-19T03:11:37;10.00;;;7.17;;
9761;SDS011;4920;49.594;11.022;2023-11-19T03:14:08;8.60;;;6.23;;
9761;SDS011;4920;49.594;11.022;2023-11-19T03:16:36;8.17;;;6.53;;
9761;SDS011;4920;49.594;11.022;2023-11-19T03:19:05;10.70;;;6.53;;
9761;SDS011;4920;49.594;11.022;2023-11-19T03:21:34;12.27;;;7.17;;
9761;SDS011;4920;49.594;11.022;2023-11-19T03:24:04;10.80;;;6.90;;
9761;SDS011;4920;49.594;11.022;2023-11-19T03:26:33;9.90;;;7.03;;
9761;SDS011;4920;49.594;11.022;2023-11-19T03:29:04;9.20;;;7.23;;
9761;SDS011;4920;49.594;11.022;2023-11-19T03:31:35;12.50;;;7.20;;
9761;SDS011;4920;49.594;11.022;2023-11-19T03:34:05;11.73;;;7.93;;
9761;SDS011;4920;49.594;11.022;2023-11-19T03:36:34;8.73;;;6.87;;
9761;SDS011;4920;49.594;11.022;2023-11-19T03:39:03;9.67;;;7.20;;
9761;SDS011;4920;49.594;11.022;2023-11-19T03:41:32;9.93;;;7.43;;
9761;SDS011;4920;49.594;11.022;2023-11-19T03:44:03;14.27;;;8.67;;
9761;SDS011;4920;49.594;11.022;2023-11-19T03:46:32;11.03;;;7.80;;
9761;SDS011;4920;49.594;11.022;2023-11-19T03:49:03;11.37;;;7.83;;
9761;SDS011;4920;49.594;11.022;2023-11-19T03:51:34;11.43;;;7.97;;
9761;SDS011;4920;49.594;11.022;2023-11-19T03:54:03;11.33;;;8.20;;
9761;SDS011;4920;49.594;11.022;2023-11-19T03:56:33;14.57;;;8.97;;
9761;SDS011;4920;49.594;11.022;2023-11-19T03:59:02;12.83;;;9.30;;
9761;SDS011;4920;49.594;11.022;2023-11-19T04:01:31;16.23;;;9.67;;
9761;SDS011;4920;49.594;11.022;2023-11-19T04:04:01;13.43;;;9.17;;
9761;SDS011;4920;49.594;11.022;2023-11-19T04:06:30;17.80;;;10.30;;
9761;SDS011;4920;49.594;11.022;2023-11-19T04:08:59;15.77;;;10.47;;
9761;SDS011;4920;49.594;11.022;2023-11-19T04:11:28;17.60;;;9.23;;
9761;SDS011;4920;49.594;11.022;2023-11-19T04:13:57;14.90;;;10.70;;
9761;SDS011;4920;49.594;11.022;2023-11-19T04:16:26;13.83;;;9.40;;
9761;SDS011;4920;49.594;11.022;2023-11-19T04:18:56;12.63;;;9.20;;
9761;SDS011;4920;49.594;11.022;2023-11-19T04:21:26;19.63;;;11.13;;
9761;SDS011;4920;49.594;11.022;2023-11-19T04:23:55;19.50;;;10.40;;
9761;SDS011;4920;49.594;11.022;2023-11-19T04:26:24;17.10;;;9.90;;
9761;SDS011;4920;49.594;11.022;2023-11-19T04:28:56;15.23;;;10.00;;
9761;SDS011;4920;49.594;11.022;2023-11-19T04:31:28;13.80;;;9.57;;
9761;SDS011;4920;49.594;11.022;2023-11-19T04:33:58;19.87;;;11.37;;
9761;SDS011;4920;49.594;11.022;2023-11-19T04:36:29;14.47;;;10.17;;
9761;SDS011;4920;49.594;11.022;2023-11-19T04:38:58;14.17;;;10.00;;
9761;SDS011;4920;49.594;11.022;2023-11-19T04:41:27;15.73;;;10.80;;
9761;SDS011;4920;49.594;11.022;2023-11-19T04:43:56;18.20;;;10.93;;
9761;SDS011;4920;49.594;11.022;2023-11-19T04:46:25;17.23;;;10.30;;
9761;SDS011;4920;49.594;11.022;2023-11-19T04:48:54;16.63;;;10.47;;
9761;SDS011;4920;49.594;11.022;2023-11-19T04:51:23;21.53;;;11.80;;
9761;SDS011;4920;49.594;11.022;2023-11-19T04:53:53;19.07;;;11.20;;
9761;SDS011;4920;49.594;11.022;2023-11-19T04:56:23;15.03;;;10.13;;
9761;SDS011;4920;49.594;11.022;2023-11-19T04:58:52;16.23;;;10.50;;
9761;SDS011;4920;49.594;11.022;2023-11-19T05:01:22;22.17;;;11.43;;
9761;SDS011;4920;49.594;11.022;2023-11-19T05:03:50;19.27;;;11.67;;
9761;SDS011;4920;49.594;11.022;2023-11-19T05:06:19;17.37;;;11.17;;
9761;SDS011;4920;49.594;11.022;2023-11-19T05:08:48;15.50;;;10.67;;
9761;SDS011;4920;49.594;11.022;2023-11-19T05:11:19;16.67;;;11.20;;
9761;SDS011;4920;49.594;11.022;2023-11-19T05:13:48;16.63;;;11.13;;
9761;SDS011;4920;49.594;11.022;2023-11-19T05:16:17;17.47;;;11.23;;
9761;SDS011;4920;49.594;11.022;2023-11-19T05:18:47;29.17;;;12.60;;
9761;SDS011;4920;49.594;11.022;2023-11-19T05:21:16;21.30;;;11.77;;
9761;SDS011;4920;49.594;11.022;2023-11-19T05:23:45;26.67;;;13.13;;
9761;SDS011;4920;49.594;11.022;2023-11-19T05:26:19;21.97;;;12.57;;
9761;SDS011;4920;49.594;11.022;2023-11-19T05:28:49;20.40;;;12.53;;
9761;SDS011;4920;49.594;11.022;2023-11-19T05:31:18;23.23;;;13.17;;
9761;SDS011;4920;49.594;11.022;2023-11-19T05:33:47;27.50;;;12.93;;
9761;SDS011;4920;49.594;11.022;2023-11-19T05:36:16;22.27;;;13.13;;
9761;SDS011;4920;49.594;11.022;2023-11-19T05:38:45;20.27;;;12.07;;
9761;SDS011;4920;49.594;11.022;2023-11-19T05:41:14;28.77;;;13.60;;
9761;SDS011;4920;49.594;11.022;2023-11-19T05:43:44;20.33;;;12.70;;
9761;SDS011;4920;49.594;11.022;2023-11-19T05:46:13;29.00;;;13.77;;
9761;SDS011;4920;49.594;11.022;2023-11-19T05:48:46;23.27;;;13.43;;
9761;SDS011;4920;49.594;11.022;2023-11-19T05:51:15;20.40;;;13.43;;
9761;SDS011;4920;49.594;11.022;2023-11-19T05:53:44;21.70;;;13.53;;
9761;SDS011;4920;49.594;11.022;2023-11-19T05:56:13;28.00;;;14.53;;
9761;SDS011;4920;49.594;11.022;2023-11-19T05:58:49;22.23;;;13.47;;
9761;SDS011;4920;49.594;11.022;2023-11-19T06:01:18;28.47;;;15.23;;
9761;SDS011;4920;49.594;11.022;2023-11-19T06:03:47;26.30;;;14.57;;
9761;SDS011;4920;49.594;11.022;2023-11-19T06:06:17;30.57;;;15.17;;
9761;SDS011;4920;49.594;11.022;2023-11-19T06:08:46;37.13;;;16.47;;
9761;SDS011;4920;49.594;11.022;2023-11-19T06:11:15;30.87;;;15.67;;
9761;SDS011;4920;49.594;11.022;2023-11-19T06:13:47;28.33;;;14.90;;
9761;SDS011;4920;49.594;11.022;2023-11-19T06:16:19;29.67;;;15.20;;
9761;SDS011;4920;49.594;11.022;2023-11-19T06:18:48;30.83;;;15.40;;
9761;SDS011;4920;49.594;11.022;2023-11-19T06:21:18;33.83;;;16.10;;
9761;SDS011;4920;49.594;11.022;2023-11-19T06:23:46;29.03;;;15.03;;
9761;SDS011;4920;49.594;11.022;2023-11-19T06:26:15;28.87;;;14.50;;
9761;SDS011;4920;49.594;11.022;2023-11-19T06:28:45;34.70;;;15.23;;
9761;SDS011;4920;49.594;11.022;2023-11-19T06:31:14;43.63;;;16.63;;
9761;SDS011;4920;49.594;11.022;2023-11-19T06:33:44;42.43;;;16.83;;
9761;SDS011;4920;49.594;11.022;2023-11-19T06:36:14;40.77;;;16.77;;
9761;SDS011;4920;49.594;11.022;2023-11-19T06:38:44;55.60;;;19.27;;
9761;SDS011;4920;49.594;11.022;2023-11-19T06:41:13;39.10;;;16.10;;
9761;SDS011;4920;49.594;11.022;2023-11-19T06:43:42;34.27;;;15.47;;
9761;SDS011;4920;49.594;11.022;2023-11-19T06:46:14;33.63;;;15.23;;
9761;SDS011;4920;49.594;11.022;2023-11-19T06:48:45;60.23;;;18.17;;
9761;SDS011;4920;49.594;11.022;2023-11-19T06:51:14;36.57;;;15.70;;
9761;SDS011;4920;49.594;11.022;2023-11-19T06:53:43;64.37;;;16.80;;
9761;SDS011;4920;49.594;11.022;2023-11-19T06:56:19;39.20;;;16.70;;
9761;SDS011;4920;49.594;11.022;2023-11-19T06:58:49;32.13;;;14.57;;
9761;SDS011;4920;49.594;11.022;2023-11-19T07:01:18;29.93;;;14.47;;
9761;SDS011;4920;49.594;11.022;2023-11-19T07:03:49;39.47;;;14.93;;
9761;SDS011;4920;49.594;11.022;2023-11-19T07:06:18;26.87;;;13.83;;
9761;SDS011;4920;49.594;11.022;2023-11-19T07:09:00;31.70;;;14.63;;
9761;SDS011;4920;49.594;11.022;2023-11-19T07:11:37;47.10;;;14.47;;
9761;SDS011;4920;49.594;11.022;2023-11-19T07:14:07;22.53;;;12.03;;
9761;SDS011;4920;49.594;11.022;2023-11-19T07:16:36;40.00;;;14.63;;
9761;SDS011;4920;49.594;11.022;2023-11-19T07:19:07;23.67;;;11.97;;
9761;SDS011;4920;49.594;11.022;2023-11-19T07:21:36;31.80;;;13.70;;
9761;SDS011;4920;49.594;11.022;2023-11-19T07:24:06;28.43;;;12.47;;
9761;SDS011;4920;49.594;11.022;2023-11-19T07:26:35;21.70;;;9.83;;
9761;SDS011;4920;49.594;11.022;2023-11-19T07:29:09;18.60;;;10.00;;
9761;SDS011;4920;49.594;11.022;2023-11-19T07:31:38;20.03;;;10.23;;
9761;SDS011;4920;49.594;11.022;2023-11-19T07:34:08;14.87;;;9.17;;
9761;SDS011;4920;49.594;11.022;2023-11-19T07:36:38;25.70;;;10.63;;
9761;SDS011;4920;49.594;11.022;2023-11-19T07:39:07;16.00;;;9.17;;
9761;SDS011;4920;49.594;11.022;2023-11-19T07:41:37;21.37;;;10.13;;
9761;SDS011;4920;49.594;11.022;2023-11-19T07:44:06;27.60;;;11.10;;
9761;SDS011;4920;49.594;11.022;2023-11-19T07:46:35;13.93;;;8.63;;
9761;SDS011;4920;49.594;11.022;2023-11-19T07:49:04;15.53;;;7.70;;
9761;SDS011;4920;49.594;11.022;2023-11-19T07:51:35;18.27;;;8.77;;
9761;SDS011;4920;49.594;11.022;2023-11-19T07:54:04;12.27;;;7.70;;
9761;SDS011;4920;49.594;11.022;2023-11-19T07:56:33;17.57;;;8.47;;
9761;SDS011;4920;49.594;11.022;2023-11-19T07:59:02;14.07;;;7.93;;
9761;SDS011;4920;49.594;11.022;2023-11-19T08:01:31;16.67;;;9.40;;
9761;SDS011;4920;49.594;11.022;2023-11-19T08:04:00;13.87;;;9.57;;
9761;SDS011;4920;49.594;11.022;2023-11-19T08:06:29;15.17;;;8.77;;
9761;SDS011;4920;49.594;11.022;2023-11-19T08:09:00;16.17;;;9.60;;
9761;SDS011;4920;49.594;11.022;2023-11-19T08:11:29;18.97;;;9.67;;
9761;SDS011;4920;49.594;11.022;2023-11-19T08:13:58;20.17;;;9.20;;
9761;SDS011;4920;49.594;11.022;2023-11-19T08:16:27;31.47;;;9.70;;
9761;SDS011;4920;49.594;11.022;2023-11-19T08:18:56;20.07;;;11.03;;
9761;SDS011;4920;49.594;11.022;2023-11-19T08:21:25;20.73;;;10.20;;
9761;SDS011;4920;49.594;11.022;2023-11-19T08:23:54;18.23;;;10.93;;
9761;SDS011;4920;49.594;11.022;2023-11-19T08:26:24;22.37;;;11.80;;
9761;SDS011;4920;49.594;11.022;2023-11-19T08:28:53;38.43;;;13.90;;
9761;SDS011;4920;49.594;11.022;2023-11-19T08:31:22;31.27;;;13.20;;
9761;SDS011;4920;49.594;11.022;2023-11-19T08:33:52;50.93;;;17.00;;
9761;SDS011;4920;49.594;11.022;2023-11-19T08:36:21;38.23;;;14.27;;
9761;SDS011;4920;49.594;11.022;2023-11-19T08:38:49;37.20;;;12.30;;
9761;SDS011;4920;49.594;11.022;2023-11-19T08:41:19;12.13;;;7.63;;
9761;SDS011;4920;49.594;11.022;2023-11-19T08:43:50;16.20;;;8.57;;
9761;SDS011;4920;49.594;11.022;2023-11-19T08:46:19;12.20;;;6.60;;
9761;SDS011;4920;49.594;11.022;2023-11-19T08:48:48;6.20;;;3.40;;
9761;SDS011;4920;49.594;11.022;2023-11-19T08:51:17;6.30;;;2.87;;
9761;SDS011;4920;49.594;11.022;2023-11-19T08:53:46;3.17;;;2.27;;
9761;SDS011;4920;49.594;11.022;2023-11-19T08:56:14;4.33;;;2.50;;
9761;SDS011;4920;49.594;11.022;2023-11-19T08:58:44;3.73;;;2.17;;
9761;SDS011;4920;49.594;11.022;2023-11-19T09:01:14;4.43;;;2.60;;
9761;SDS011;4920;49.594;11.022;2023-11-19T09:03:43;3.73;;;2.30;;
9761;SDS011;4920;49.594;11.022;2023-11-19T09:06:12;3.23;;;2.50;;
9761;SDS011;4920;49.594;11.022;2023-11-19T09:08:41;3.73;;;2.00;;
9761;SDS011;4920;49.594;11.022;2023-11-19T09:11:10;3.07;;;2.20;;
9761;SDS011;4920;49.594;11.022;2023-11-19T09:13:39;4.97;;;2.10;;
9761;SDS011;4920;49.594;11.022;2023-11-19T09:16:08;4.30;;;2.20;;
9761;SDS011;4920;49.594;11.022;2023-11-19T09:18:41;3.37;;;1.90;;
9761;SDS011;4920;49.594;11.022;2023-11-19T09:21:10;3.53;;;2.13;;
9761;SDS011;4920;49.594;11.022;2023-11-19T09:23:39;4.17;;;1.90;;
9761;SDS011;4920;49.594;11.022;2023-11-19T09:26:08;2.83;;;1.80;;
9761;SDS011;4920;49.594;11.022;2023-11-19T09:28:38;1.80;;;1.70;;
9761;SDS011;4920;49.594;11.022;2023-11-19T09:31:13;2.87;;;1.60;;
9761;SDS011;4920;49.594;11.022;2023-11-19T09:33:44;2.37;;;1.53;;
9761;SDS011;4920;49.594;11.022;2023-11-19T09:36:13;2.70;;;1.73;;
9761;SDS011;4920;49.594;11.022;2023-11-19T09:38:43;4.93;;;1.60;;
9761;SDS011;4920;49.594;11.022;2023-11-19T09:41:12;4.30;;;1.70;;
9761;SDS011;4920;49.594;11.022;2023-11-19T09:43:42;2.50;;;1.57;;
9761;SDS011;4920;49.594;11.022;2023-11-19T09:46:12;2.70;;;1.50;;
9761;SDS011;4920;49.594;11.022;2023-11-19T09:48:44;4.57;;;1.60;;
9761;SDS011;4920;49.594;11.022;2023-11-19T09:51:14;2.27;;;1.50;;
9761;SDS011;4920;49.594;11.022;2023-11-19T09:53:44;3.50;;;1.77;;
9761;SDS011;4920;49.594;11.022;2023-11-19T09:56:12;2.30;;;1.40;;
9761;SDS011;4920;49.594;11.022;2023-11-19T09:58:43;1.77;;;1.45;;
9761;SDS011;4920;49.594;11.022;2023-11-19T10:01:13;3.03;;;1.40;;
9761;SDS011;4920;49.594;11.022;2023-11-19T10:03:56;2.95;;;1.70;;
9761;SDS011;4920;49.594;11.022;2023-11-19T10:06:25;2.45;;;1.23;;
9761;SDS011;4920;49.594;11.022;2023-11-19T10:08:54;1.50;;;1.20;;
9761;SDS011;4920;49.594;11.022;2023-11-19T10:14:14;2.10;;;1.33;;
9761;SDS011;4920;49.594;11.022;2023-11-19T10:16:46;2.90;;;1.40;;
9761;SDS011;4920;49.594;11.022;2023-11-19T10:19:20;2.70;;;1.20;;
9761;SDS011;4920;49.594;11.022;2023-11-19T10:21:48;2.25;;;1.33;;
9761;SDS011;4920;49.594;11.022;2023-11-19T10:24:18;1.95;;;1.15;;
9761;SDS011;4920;49.594;11.022;2023-11-19T10:27:01;3.75;;;1.30;;
9761;SDS011;4920;49.594;11.022;2023-11-19T10:29:30;2.80;;;1.20;;
9761;SDS011;4920;49.594;11.022;2023-11-19T10:31:59;2.38;;;1.23;;
9761;SDS011;4920;49.594;11.022;2023-11-19T10:34:50;2.55;;;1.35;;
9761;SDS011;4920;49.594;11.022;2023-11-19T10:37:27;2.22;;;1.52;;
9761;SDS011;4920;49.594;11.022;2023-11-19T10:39:59;2.78;;;1.13;;
9761;SDS011;4920;49.594;11.022;2023-11-19T10:42:28;2.97;;;1.40;;
9761;SDS011;4920;49.594;11.022;2023-11-19T10:44:57;2.75;;;1.23;;
9761;SDS011;4920;49.594;11.022;2023-11-19T10:47:26;2.85;;;1.40;;
9761;SDS011;4920;49.594;11.022;2023-11-19T10:50:01;2.75;;;1.30;;
9761;SDS011;4920;49.594;11.022;2023-11-19T10:52:30;3.15;;;1.20;;
9761;SDS011;4920;49.594;11.022;2023-11-19T10:55:02;3.28;;;1.60;;
9761;SDS011;4920;49.594;11.022;2023-11-19T10:57:36;2.72;;;1.23;;
9761;SDS011;4920;49.594;11.022;2023-11-19T11:00:07;3.83;;;1.10;;
9761;SDS011;4920;49.594;11.022;2023-11-19T11:02:41;1.80;;;1.05;;
9761;SDS011;4920;49.594;11.022;2023-11-19T11:05:18;1.13;;;0.80;;
9761;SDS011;4920;49.594;11.022;2023-11-19T11:07:51;2.00;;;0.90;;
9761;SDS011;4920;49.594;11.022;2023-11-19T11:10:23;1.65;;;1.08;;
9761;SDS011;4920;49.594;11.022;2023-11-19T11:12:54;1.58;;;0.90;;
9761;SDS011;4920;49.594;11.022;2023-11-19T11:15:27;1.25;;;0.77;;
9761;SDS011;4920;49.594;11.022;2023-11-19T11:17:59;2.03;;;1.00;;
9761;SDS011;4920;49.594;11.022;2023-11-19T11:20:31;3.38;;;1.00;;
9761;SDS011;4920;49.594;11.022;2023-11-19T11:23:06;1.83;;;1.00;;
9761;SDS011;4920;49.594;11.022;2023-11-19T11:26:04;2.63;;;0.93;;
9761;SDS011;4920;49.594;11.022;2023-11-19T11:28:46;3.50;;;1.10;;
9761;SDS011;4920;49.594;11.022;2023-11-19T11:31:29;2.75;;;0.98;;
9761;SDS011;4920;49.594;11.022;2023-11-19T11:34:19;2.33;;;1.10;;
9761;SDS011;4920;49.594;11.022;2023-11-19T11:37:06;2.38;;;1.10;;
9761;SDS011;4920;49.594;11.022;2023-11-19T11:39:42;2.47;;;1.40;;
9761;SDS011;4920;49.594;11.022;2023-11-19T11:45:01;1.65;;;1.10;;
9761;SDS011;4920;49.594;11.022;2023-11-19T11:50:57;2.42;;;1.10;;
9761;SDS011;4920;49.594;11.022;2023-11-19T11:53:27;3.97;;;1.27;;
9761;SDS011;4920;49.594;11.022;2023-11-19T11:55:59;1.70;;;1.20;;
9761;SDS011;4920;49.594;11.022;2023-11-19T11:58:32;2.65;;;1.15;;
9761;SDS011;4920;49.594;11.022;2023-11-19T12:01:04;3.67;;;1.00;;
9761;SDS011;4920;49.594;11.022;2023-11-19T12:03:33;3.55;;;1.45;;
9761;SDS011;4920;49.594;11.022;2023-11-19T12:06:02;3.38;;;1.20;;
9761;SDS011;4920;49.594;11.022;2023-11-19T12:08:34;2.15;;;1.10;;
9761;SDS011;4920;49.594;11.022;2023-11-19T12:11:19;5.85;;;1.40;;
9761;SDS011;4920;49.594;11.022;2023-11-19T12:13:52;4.07;;;1.30;;
9761;SDS011;4920;49.594;11.022;2023-11-19T12:16:25;3.00;;;1.20;;
9761;SDS011;4920;49.594;11.022;2023-11-19T12:18:56;2.67;;;1.40;;
9761;SDS011;4920;49.594;11.022;2023-11-19T12:21:32;2.35;;;1.67;;
9761;SDS011;4920;49.594;11.022;2023-11-19T12:24:06;3.47;;;1.42;;
9761;SDS011;4920;49.594;11.022;2023-11-19T12:26:39;2.20;;;1.20;;
9761;SDS011;4920;49.594;11.022;2023-11-19T12:29:08;3.13;;;1.40;;
9761;SDS011;4920;49.594;11.022;2023-11-19T12:31:37;1.73;;;1.33;;
9761;SDS011;4920;49.594;11.022;2023-11-19T12:34:12;2.30;;;1.30;;
9761;SDS011;4920;49.594;11.022;2023-11-19T12:36:42;2.50;;;1.30;;
9761;SDS011;4920;49.594;11.022;2023-11-19T12:39:12;3.20;;;1.50;;
9761;SDS011;4920;49.594;11.022;2023-11-19T12:41:51;3.73;;;1.50;;
9761;SDS011;4920;49.594;11.022;2023-11-19T12:44:21;2.93;;;1.30;;
9761;SDS011;4920;49.594;11.022;2023-11-19T12:47:00;4.10;;;1.33;;
9761;SDS011;4920;49.594;11.022;2023-11-19T12:49:31;3.03;;;1.37;;
9761;SDS011;4920;49.594;11.022;2023-11-19T12:52:00;2.07;;;1.30;;
9761;SDS011;4920;49.594;11.022;2023-11-19T12:54:34;2.13;;;1.37;;
9761;SDS011;4920;49.594;11.022;2023-11-19T12:57:04;1.93;;;1.40;;
9761;SDS011;4920;49.594;11.022;2023-11-19T12:59:33;2.87;;;1.40;;
9761;SDS011;4920;49.594;11.022;2023-11-19T13:02:02;2.70;;;1.40;;
9761;SDS011;4920;49.594;11.022;2023-11-19T13:04:33;1.53;;;1.27;;
9761;SDS011;4920;49.594;11.022;2023-11-19T13:07:02;4.40;;;1.40;;
9761;SDS011;4920;49.594;11.022;2023-11-19T13:09:34;4.27;;;1.50;;
9761;SDS011;4920;49.594;11.022;2023-11-19T13:12:12;3.58;;;1.70;;
9761;SDS011;4920;49.594;11.022;2023-11-19T13:14:42;2.80;;;1.58;;
9761;SDS011;4920;49.594;11.022;2023-11-19T13:17:14;3.03;;;1.10;;
9761;SDS011;4920;49.594;11.022;2023-11-19T13:19:43;4.97;;;1.40;;
9761;SDS011;4920;49.594;11.022;2023-11-19T13:22:14;2.20;;;1.13;;
9761;SDS011;4920;49.594;11.022;2023-11-19T13:24:45;3.40;;;1.20;;
9761;SDS011;4920;49.594;11.022;2023-11-19T13:27:14;4.25;;;1.38;;
9761;SDS011;4920;49.594;11.022;2023-11-19T13:29:43;2.17;;;1.40;;
9761;SDS011;4920;49.594;11.022;2023-11-19T13:32:11;4.75;;;1.30;;
9761;SDS011;4920;49.594;11.022;2023-11-19T13:34:40;1.75;;;1.10;;
9761;SDS011;4920;49.594;11.022;2023-11-19T13:37:09;2.00;;;1.45;;
9761;SDS011;4920;49.594;11.022;2023-11-19T13:39:41;3.72;;;1.40;;
9761;SDS011;4920;49.594;11.022;2023-11-19T13:42:11;3.85;;;1.30;;
9761;SDS011;4920;49.594;11.022;2023-11-19T13:44:40;4.57;;;1.60;;
9761;SDS011;4920;49.594;11.022;2023-11-19T13:47:09;3.35;;;1.27;;
9761;SDS011;4920;49.594;11.022;2023-11-19T13:49:40;6.22;;;1.30;;
9761;SDS011;4920;49.594;11.022;2023-11-19T13:52:09;4.35;;;1.65;;
9761;SDS011;4920;49.594;11.022;2023-11-19T13:54:38;3.93;;;1.70;;
9761;SDS011;4920;49.594;11.022;2023-11-19T13:57:07;4.37;;;1.57;;
9761;SDS011;4920;49.594;11.022;2023-11-19T13:59:40;7.93;;;1.60;;
9761;SDS011;4920;49.594;11.022;2023-11-19T14:02:09;4.23;;;1.70;;
9761;SDS011;4920;49.594;11.022;2023-11-19T14:04:38;3.70;;;1.60;;
9761;SDS011;4920;49.594;11.022;2023-11-19T14:07:08;4.07;;;1.97;;
9761;SDS011;4920;49.594;11.022;2023-11-19T14:09:37;7.47;;;2.07;;
9761;SDS011;4920;49.594;11.022;2023-11-19T14:12:08;3.57;;;1.80;;
9761;SDS011;4920;49.594;11.022;2023-11-19T14:14:41;9.40;;;1.63;;
9761;SDS011;4920;49.594;11.022;2023-11-19T14:17:10;3.97;;;1.80;;
9761;SDS011;4920;49.594;11.022;2023-11-19T14:19:40;3.47;;;1.63;;
9761;SDS011;4920;49.594;11.022;2023-11-19T14:22:09;5.00;;;1.70;;
9761;SDS011;4920;49.594;11.022;2023-11-19T14:24:38;3.10;;;1.60;;
9761;SDS011;4920;49.594;11.022;2023-11-19T14:27:09;3.80;;;1.80;;
9761;SDS011;4920;49.594;11.022;2023-11-19T14:29:38;3.63;;;1.67;;
9761;SDS011;4920;49.594;11.022;2023-11-19T14:32:09;3.37;;;1.70;;
9761;SDS011;4920;49.594;11.022;2023-11-19T14:34:38;3.23;;;1.77;;
9761;SDS011;4920;49.594;11.022;2023-11-19T14:37:06;4.87;;;1.80;;
9761;SDS011;4920;49.594;11.022;2023-11-19T14:39:35;2.67;;;1.50;;
9761;SDS011;4920;49.594;11.022;2023-11-19T14:42:04;6.53;;;2.10;;
9761;SDS011;4920;49.594;11.022;2023-11-19T14:44:33;4.77;;;2.07;;
9761;SDS011;4920;49.594;11.022;2023-11-19T14:47:05;3.90;;;1.67;;
9761;SDS011;4920;49.594;11.022;2023-11-19T14:49:34;3.97;;;1.90;;
9761;SDS011;4920;49.594;11.022;2023-11-19T14:52:03;5.63;;;2.10;;
9761;SDS011;4920;49.594;11.022;2023-11-19T14:54:35;4.77;;;1.80;;
9761;SDS011;4920;49.594;11.022;2023-11-19T14:57:05;4.67;;;2.07;;
9761;SDS011;4920;49.594;11.022;2023-11-19T14:59:35;3.90;;;1.93;;
9761;SDS011;4920;49.594;11.022;2023-11-19T15:02:05;8.20;;;2.40;;
9761;SDS011;4920;49.594;11.022;2023-11-19T15:04:34;4.07;;;2.00;;
9761;SDS011;4920;49.594;11.022;2023-11-19T15:07:04;8.37;;;2.73;;
9761;SDS011;4920;49.594;11.022;2023-11-19T15:09:33;3.77;;;2.00;;
9761;SDS011;4920;49.594;11.022;2023-11-19T15:12:03;4.17;;;2.00;;
9761;SDS011;4920;49.594;11.022;2023-11-19T15:14:33;3.73;;;1.90;;
9761;SDS011;4920;49.594;11.022;2023-11-19T15:17:02;7.07;;;1.87;;
9761;SDS011;4920;49.594;11.022;2023-11-19T15:19:35;3.23;;;1.67;;
9761;SDS011;4920;49.594;11.022;2023-11-19T15:22:03;3.20;;;1.57;;